Latest Weather Observations for Flinders Island Airport

IDT60801

Issued at 9:35 pm EDT Saturday 22 November 2014 (issued every 30 minutes, with the page automatically refreshed every 10 minutes)

About weather observations | Map of weather stations | Latest weather observations for TAS | Other Formats
Station Details ID: 099005 Name: FLINDERS ISLAND AIRPORT Lat: -40.09 Lon: 148.00 Height: 9.0 m
Data from the previous 72 hours. | See also: Recent months at Flinders Island Airport
Date/Time
EDT
Temp
°C
App
Temp
°C
Dew
Point
Rel
Hum
%
Delta-T
°C
Wind Press
QNH
hPa
Press
MSL
hPa
Rain
since 9 am
mm
Dir
 
Spd
km/h
Gust
km/h
Spd
kts
Gust
kts
22/09:30pm 17.7 14.0 12.8 73 2.7 NE 24 30 13 16 1006.3 1006.3 0.0
22/09:00pm 16.3 14.4 13.0 81 1.8 ENE 15 20 8 11 1006.4 1006.4 0.0
22/08:30pm 17.2 14.7 13.5 79 2.1 NNE 19 24 10 13 1006.5 1006.5 0.0
22/08:00pm 18.8 17.0 13.2 70 3.2 NE 15 20 8 11 1006.6 1006.6 0.0
22/07:30pm 19.2 16.9 14.0 72 3.0 NE 19 22 10 12 1006.3 1006.3 0.0
22/07:00pm 20.9 18.1 14.3 66 3.9 NNE 22 28 12 15 1006.8 1006.8 0.0
22/06:30pm 21.8 19.4 14.4 63 4.3 NNE 20 24 11 13 1006.8 1006.8 0.0
22/06:00pm 24.3 22.2 12.3 47 6.9 N 15 24 8 13 1006.7 1006.7 0.0
22/05:30pm 24.7 21.2 13.3 49 6.6 WNW 24 30 13 16 1006.9 1006.9 0.0
22/05:00pm 23.6 21.9 14.6 57 5.3 N 17 26 9 14 1007.1 1007.1 0.0
22/04:30pm 23.5 21.3 14.8 58 5.2 N 20 30 11 16 1007.3 1007.3 0.0
22/04:00pm 22.8 19.2 14.1 58 5.1 N 26 35 14 19 1007.7 1007.7 0.0
22/03:30pm 22.2 17.1 13.8 59 4.9 NNE 33 44 18 24 1008.0 1008.0 0.0
22/03:00pm 20.8 15.6 12.8 60 4.5 NNE 32 41 17 22 1008.4 1008.4 0.0
22/02:30pm 22.3 16.7 12.0 52 5.8 NNE 33 43 18 23 1008.5 1008.5 0.0
22/02:00pm 21.0 14.8 11.3 54 5.4 NNE 35 50 19 27 1008.8 1008.8 0.0
22/01:54pm 21.5 15.6 10.6 50 6.0 NNE 32 50 17 27 1008.8 1008.8 0.0
22/01:30pm 22.0 15.2 9.2 44 6.8 NNE 35 48 19 26 1009.0 1009.0 0.0
22/01:00pm 21.9 14.5 8.4 42 7.1 NNE 37 44 20 24 1009.2 1009.2 0.0
22/12:30pm 21.6 14.8 7.8 41 7.2 NNE 33 44 18 24 1009.4 1009.4 0.0
22/12:00pm 21.8 15.5 7.6 40 7.4 N 30 43 16 23 1009.8 1009.8 0.0
22/11:30am 20.8 15.1 9.7 49 5.9 N 30 48 16 26 1010.2 1010.2 0.0
22/11:20am 21.7 16.4 11.1 51 5.9 N 30 48 16 26 1010.3 1010.3 0.0
22/11:00am 21.0 14.8 9.9 49 6.0 NNE 33 46 18 25 1009.9 1009.9 0.0
22/10:30am 20.0 15.8 9.6 51 5.5 N 22 37 12 20 1010.4 1010.4 0.0
22/10:00am 18.7 15.5 9.8 56 4.7 NNE 17 30 9 16 1010.9 1010.9 0.0
22/09:30am 17.9 14.5 9.0 56 4.6 NNE 17 22 9 12 1011.5 1011.5 0.0
22/09:00am 17.5 13.7 9.7 60 4.1 N 20 30 11 16 1011.9 1011.9 0.0
22/08:30am 16.2 13.3 9.6 65 3.4 N 15 26 8 14 1012.1 1012.1 0.0
22/08:00am 15.8 12.6 10.1 69 3.0 ENE 17 26 9 14 1011.7 1011.7 0.0
22/07:30am 14.8 13.5 11.2 79 1.9 SSW 9 11 5 6 1011.8 1011.8 0.0
22/07:00am 13.8 11.3 11.1 84 1.4 NNE 15 22 8 12 1011.8 1011.8 0.0
22/06:30am 11.5 11.2 10.1 91 0.7 ENE 2 6 1 3 1011.8 1011.8 0.0
22/06:00am 8.5 6.4 8.1 97 0.2 NE 9 11 5 6 1011.4 1011.4 0.0
22/05:30am 7.8 4.7 7.4 97 0.2 NE 13 17 7 9 1011.3 1011.3 0.0
22/05:00am 7.1 5.0 6.7 97 0.2 NE 7 11 4 6 1011.2 1011.2 0.0
22/04:30am 5.6 2.8 5.2 97 0.2 NE 9 11 5 6 1010.9 1010.9 0.0
22/04:00am 5.9 2.4 5.3 96 0.3 NE 13 15 7 8 1010.3 1010.3 0.0
22/03:30am 6.5 3.5 5.9 96 0.3 NE 11 13 6 7 1010.5 1010.5 0.0
22/03:00am 7.0 4.0 6.1 94 0.4 NE 11 11 6 6 1011.3 1011.3 0.0
22/02:30am 8.5 6.4 6.8 89 0.8 NE 7 9 4 5 1011.8 1011.8 0.0
22/02:22am 9.8 7.7 8.4 91 0.7 NE 9 11 5 6 1012.0 1012.0 0.0
22/02:07am 9.4 7.8 7.8 90 0.8 NNW 6 9 3 5 1012.3 1012.3 0.0
22/02:00am 9.3 7.7 7.9 91 0.7 N 6 13 3 7 1012.4 1012.4 0.0
22/01:30am 11.6 8.3 9.5 87 1.1 W 17 22 9 12 1012.8 1012.8 0.0
22/01:25am 11.5 8.9 9.2 86 1.2 WNW 13 20 7 11 1012.9 1012.9 0.0
22/01:00am 11.7 10.3 9.4 86 1.2 NNE 7 9 4 5 1013.3 1013.3 0.0
22/12:52am 10.3 8.5 8.1 86 1.1 N 7 9 4 5 1013.3 1013.3 0.0
22/12:30am 13.1 9.8 9.5 79 1.8 W 17 24 9 13 1013.1 1013.1 0.0
22/12:00am 12.9 9.9 9.4 79 1.8 W 15 19 8 10 1012.9 1012.9 0.0
 
Date/Time
EDT
Temp
°C
App
Temp
°C
Dew
Point
Rel
Hum
%
Delta-T
°C
Wind Press
QNH
hPa
Press
MSL
hPa
Rain
since 9 am
mm
Dir
 
Spd
km/h
Gust
km/h
Spd
kts
Gust
kts
21/11:30pm 13.2 9.8 9.3 77 2.0 W 17 22 9 12 1012.8 1012.8 0.0
21/11:00pm 13.5 9.2 9.4 76 2.1 W 22 28 12 15 1012.5 1012.5 0.0
21/10:30pm 13.5 8.7 9.0 74 2.3 W 24 33 13 18 1012.5 1012.5 0.0
21/10:00pm 13.7 7.4 9.0 73 2.4 W 32 37 17 20 1012.4 1012.4 0.0
21/09:30pm 13.8 7.3 8.8 72 2.5 W 33 43 18 23 1012.0 1012.0 0.0
21/09:00pm 13.7 7.1 8.7 72 2.5 W 33 44 18 24 1011.7 1011.7 0.0
21/08:30pm 13.7 7.1 8.5 71 2.6 W 33 43 18 23 1011.5 1011.5 0.0
21/08:00pm 13.9 7.4 8.1 68 2.9 W 32 41 17 22 1011.1 1011.1 0.0
21/07:30pm 14.5 7.8 8.2 66 3.2 W 33 43 18 23 1010.9 1010.9 0.0
21/07:00pm 15.0 8.6 8.5 65 3.3 W 32 41 17 22 1010.5 1010.5 0.0
21/06:30pm 15.5 8.1 8.3 62 3.6 W 37 52 20 28 1010.2 1010.2 0.0
21/06:00pm 16.2 8.0 8.2 59 4.1 W 41 54 22 29 1010.0 1010.0 0.0
21/05:30pm 15.9 7.6 7.9 59 4.0 W 41 52 22 28 1009.5 1009.5 0.0
21/05:00pm 16.1 7.1 7.3 56 4.4 W 44 54 24 29 1009.3 1009.3 0.0
21/04:30pm 16.1 6.0 7.6 57 4.2 W 50 59 27 32 1009.0 1009.0 0.0
21/04:00pm 16.3 6.7 7.8 57 4.3 W 48 59 26 32 1008.8 1008.8 0.0
21/03:30pm 16.6 6.4 8.6 59 4.1 W 52 61 28 33 1008.7 1008.7 0.0
21/03:00pm 17.0 7.9 8.4 57 4.4 W 46 59 25 32 1008.4 1008.4 0.0
21/02:30pm 16.9 7.0 8.3 57 4.4 W 50 63 27 34 1008.3 1008.3 0.0
21/02:00pm 17.4 8.5 9.1 58 4.3 W 46 57 25 31 1008.1 1008.1 0.0
21/01:30pm 16.5 7.7 9.7 64 3.6 W 46 57 25 31 1007.7 1007.7 0.0
21/01:00pm 17.4 9.0 9.8 61 4.0 W 44 57 24 31 1007.6 1007.6 0.0
21/12:30pm 16.1 7.4 10.0 67 3.2 W 46 56 25 30 1006.9 1006.9 0.0
21/12:00pm 15.1 5.7 10.3 73 2.5 W 50 63 27 34 1007.1 1007.1 0.0
21/11:30am 16.8 9.0 11.1 69 3.1 W 43 57 23 31 1006.4 1006.4 0.0
21/11:00am 16.9 9.1 11.2 69 3.1 W 43 57 23 31 1006.7 1006.7 0.0
21/10:30am 16.5 8.9 12.3 76 2.3 W 44 59 24 32 1006.7 1006.7 0.0
21/10:00am 16.3 9.9 12.1 76 2.3 W 37 50 20 27 1006.3 1006.3 0.0
21/09:30am 16.4 10.7 12.9 80 1.9 W 35 48 19 26 1005.9 1005.9 0.0
21/09:11am 15.8 9.9 12.5 81 1.8 W 35 48 19 26 1006.0 1006.0 0.0
21/09:00am 15.7 9.5 12.5 81 1.8 W 37 50 20 27 1005.6 1005.6 7.0
21/08:30am 15.6 10.3 13.1 85 1.4 W 33 46 18 25 1005.1 1005.1 7.0
21/08:00am 15.6 10.0 13.3 86 1.3 W 35 44 19 24 1004.7 1004.7 7.0
21/07:30am 15.5 10.8 13.3 87 1.2 W 30 37 16 20 1004.2 1004.2 7.0
21/07:00am 15.3 11.5 13.5 89 1.0 W 26 33 14 18 1003.9 1003.9 7.0
21/06:30am 15.5 10.7 14.0 91 0.8 W 32 41 17 22 1003.5 1003.5 7.0
21/06:00am 15.7 11.9 14.6 93 0.6 W 28 35 15 19 1003.0 1003.0 7.0
21/05:30am 16.0 11.8 14.7 92 0.7 W 30 39 16 21 1003.0 1003.0 7.0
21/05:00am 16.5 12.5 15.2 92 0.8 WNW 30 41 16 22 1002.6 1002.6 7.0
21/04:30am 17.4 12.9 15.4 88 1.2 NW 33 44 18 24 1002.2 1002.2 7.0
21/04:00am 17.6 13.7 15.4 87 1.3 NW 30 41 16 22 1002.2 1002.2 7.0
21/03:30am 18.2 13.6 15.1 82 1.8 NNW 33 46 18 25 1002.2 1002.2 6.8
21/03:27am 18.3 13.8 15.0 81 1.9 NNW 32 46 17 25 1002.1 1002.1 6.8
21/03:00am 18.9 14.5 15.2 79 2.2 NNW 32 44 17 24 1002.0 1002.0 6.8
21/02:48am 19.2 14.6 15.1 77 2.4 NNW 33 52 18 28 1001.8 1001.8 6.8
21/02:30am 19.5 14.6 15.2 76 2.5 NW 35 46 19 25 1001.8 1001.8 6.8
21/02:05am 19.5 15.0 15.0 75 2.6 NW 32 54 17 29 1002.0 1002.0 6.8
21/02:00am 19.6 15.5 14.8 74 2.8 NW 30 43 16 23 1002.1 1002.1 6.8
21/01:30am 19.2 14.5 14.9 76 2.5 NW 33 43 18 23 1002.4 1002.4 6.8
21/01:16am 19.2 14.7 14.9 76 2.5 NNW 32 50 17 27 1002.6 1002.6 6.8
21/01:00am 19.7 15.9 14.7 73 2.9 NNW 28 43 15 23 1002.8 1002.8 6.8
21/12:30am 19.2 16.5 14.7 75 2.6 NNW 22 32 12 17 1003.2 1003.2 6.8
21/12:00am 17.9 15.8 14.8 82 1.8 NNW 19 32 10 17 1003.5 1003.5 6.8
 
Date/Time
EDT
Temp
°C
App
Temp
°C
Dew
Point
Rel
Hum
%
Delta-T
°C
Wind Press
QNH
hPa
Press
MSL
hPa
Rain
since 9 am
mm
Dir
 
Spd
km/h
Gust
km/h
Spd
kts
Gust
kts
20/11:30pm 18.4 16.3 15.3 82 1.8 NNW 20 30 11 16 1003.8 1003.8 6.8
20/11:00pm 18.1 16.3 15.5 85 1.5 NNW 19 26 10 14 1004.5 1004.5 6.8
20/10:30pm 16.2 15.6 14.6 90 0.9 N 11 15 6 8 1005.0 1005.0 6.8
20/10:00pm 16.0 14.9 14.4 90 0.9 NNW 13 17 7 9 1005.9 1005.9 6.0
20/09:30pm 16.0 15.7 14.5 91 0.9 NNW 9 13 5 7 1006.2 1006.2 5.0
20/09:00pm 16.0 14.0 15.0 94 0.6 NW 19 24 10 13 1006.7 1006.7 4.0
20/08:30pm 16.2 14.3 15.2 94 0.6 WNW 19 26 10 14 1006.9 1006.9 3.0
20/08:27pm 16.2 14.3 15.2 94 0.6 WNW 19 26 10 14 1006.8 1006.8 2.8
20/08:00pm 16.5 14.0 15.2 92 0.8 WNW 22 32 12 17 1006.9 1006.9 2.2
20/07:58pm 16.5 14.3 15.0 91 0.9 WNW 20 32 11 17 1006.9 1006.9 2.0
20/07:30pm 16.4 15.9 14.9 91 0.9 NW 11 15 6 8 1006.4 1006.4 1.8
20/07:00pm 16.5 15.9 14.7 89 1.0 W 11 17 6 9 1006.1 1006.1 1.6
20/06:30pm 16.9 16.1 15.1 89 1.0 WNW 13 15 7 8 1006.3 1006.3 1.0
20/06:00pm 17.4 16.0 14.5 83 1.7 WNW 15 19 8 10 1006.0 1006.0 0.2
20/05:30pm 18.2 16.0 13.3 73 2.8 WNW 17 22 9 12 1005.7 1005.7 0.0
20/05:00pm 20.1 17.0 11.6 58 4.7 WNW 19 24 10 13 1005.5 1005.5 0.0
20/04:30pm 23.0 18.8 8.3 39 7.8 W 20 32 11 17 1004.7 1004.7 0.0
20/04:00pm 23.9 21.8 8.3 37 8.3 WSW 9 13 5 7 1004.1 1004.1 0.0
20/03:30pm 24.6 22.2 6.8 32 9.3 SW 9 13 5 7 1003.7 1003.7 0.0
20/03:00pm 24.3 22.1 6.1 31 9.4 WSW 7 11 4 6 1003.9 1003.9 0.0
20/02:30pm 23.7 20.9 6.9 34 8.7 W 11 15 6 8 1004.5 1004.5 0.0
20/02:00pm 23.7 20.1 6.9 34 8.7 W 15 20 8 11 1005.0 1005.0 0.0
20/01:30pm 24.3 20.5 7.4 34 8.9 WNW 17 22 9 12 1005.2 1005.2 0.0
20/01:00pm 23.9 20.3 9.9 41 7.7 WNW 19 24 10 13 1005.5 1005.5 0.0
20/12:30pm 24.5 21.2 10.8 42 7.6 WNW 19 24 10 13 1005.6 1005.6 0.0
20/12:00pm 25.2 21.3 9.5 37 8.6 W 20 26 11 14 1005.8 1005.8 0.0
20/11:55am 23.8 20.7 12.1 48 6.6 WSW 20 26 11 14 1005.7 1005.7 0.0
20/11:30am 28.9 22.2 3.7 20 12.7 NW 28 41 15 22 1005.7 1005.7 0.0
20/11:00am 28.6 23.5 6.1 24 11.9 NW 22 32 12 17 1005.9 1005.9 0.0
20/10:30am 28.1 23.7 8.9 30 10.6 N 22 33 12 18 1005.9 1005.9 0.0
20/10:00am 25.7 22.0 10.3 38 8.6 N 20 30 11 16 1006.0 1006.0 0.0
20/09:30am 25.6 21.0 9.8 37 8.7 N 24 35 13 19 1006.4 1006.4 0.0
20/09:00am 24.7 20.8 10.9 42 7.7 N 22 32 12 17 1006.5 1006.5 0.2
20/08:30am 22.7 17.9 11.7 49 6.2 N 28 39 15 21 1006.6 1006.6 0.2
20/08:00am 22.1 17.3 11.8 52 5.8 N 28 37 15 20 1006.8 1006.8 0.2
20/07:30am 20.9 15.4 11.8 56 5.1 N 32 43 17 23 1006.9 1006.9 0.2
20/07:00am 19.7 13.9 10.9 57 4.8 N 32 41 17 22 1007.1 1007.1 0.2
20/06:30am 19.1 14.9 8.4 50 5.5 NNE 20 28 11 15 1007.3 1007.3 0.2
20/06:00am 17.9 15.7 7.9 52 5.1 SE 9 19 5 10 1007.6 1007.6 0.2
20/05:30am 15.6 14.2 9.5 67 3.2 ESE 7 11 4 6 1007.6 1007.6 0.2
20/05:00am 15.3 14.0 9.9 70 2.8 E 7 11 4 6 1008.0 1008.0 0.2
20/04:30am 15.8 14.5 9.2 65 3.4 ENE 6 9 3 5 1008.3 1008.3 0.2
20/04:00am 16.6 14.8 9.5 63 3.7 NNE 9 13 5 7 1008.7 1008.7 0.2
20/03:30am 16.5 15.1 9.7 64 3.6 N 7 13 4 7 1008.8 1008.8 0.2
20/03:00am 14.2 11.3 11.0 81 1.7 NNE 17 22 9 12 1009.1 1009.1 0.2
20/02:30am 14.9 15.2 10.9 77 2.1 CALM 0 7 0 4 1009.7 1009.7 0.2
20/02:00am 14.3 13.2 10.7 79 1.9 N 7 11 4 6 1010.3 1010.3 0.2
20/01:30am 14.7 13.1 11.5 81 1.7 NE 11 11 6 6 1010.6 1010.6 0.2
20/01:00am 14.3 12.3 11.6 84 1.4 NE 13 17 7 9 1011.3 1011.3 0.2
20/12:30am 14.3 14.8 11.6 84 1.4 CALM 0 0 0 0 1011.7 1011.7 0.2
20/12:00am 13.7 13.8 11.4 86 1.2 NE 2 7 1 4 1012.2 1012.2 0.2
 
Date/Time
EDT
Temp
°C
App
Temp
°C
Dew
Point
Rel
Hum
%
Delta-T
°C
Wind Press
QNH
hPa
Press
MSL
hPa
Rain
since 9 am
mm
Dir
 
Spd
km/h
Gust
km/h
Spd
kts
Gust
kts
19/11:30pm 12.1 11.0 10.7 91 0.7 NE 7 9 4 5 1012.4 1012.4 0.2
19/11:00pm 8.9 7.1 7.8 93 0.5 N 7 9 4 5 1012.7 1012.7 0.2
19/10:30pm 9.6 7.5 8.2 91 0.7 N 9 9 5 5 1013.2 1013.2 0.2
19/10:00pm 9.4 7.8 7.8 90 0.8 N 6 9 3 5 1013.4 1013.4 0.2

Other Formats:

Comma delimited format used in spreadsheet applications
http://www.bom.gov.au/fwo/IDT60801/IDT60801.94980.axf

JavaScript Object Notation format (JSON) in row-major order
http://www.bom.gov.au/fwo/IDT60801/IDT60801.94980.json